Clogher, United Kingdom
Current Conditions -  °F | °C
As of 11:20 AM on Wednesday 26 Nov 2014 (Local Time) from EGAA Reporting Station
Moderate Fog Moderate Fog  
Wind Chill: 39°   Ceiling: Unl
Heat Index: 39°   Visibility: 0.56mi
Dew Point: 39°   Wind: 3mph
Humidity: 100%   Direction: 60°ENE
Pressure: 29.94"   Gusts: NA
Location:  54.41°N, 7.17°W
Report Text: EGAA 261120Z 06003KT 0900 R25/1400 R07/1300 FG FEW020 SCT038 04/04 Q1014
Loading
Personal Weather Stations






























Interactive Weather Map New forecast layout! Learn more

10-Day Weather Forecast

Advertisements
Track Severe Weather on mobile